Time;durP1;ratioP1;P1;durP2;ratioP2;P2;SDS_P1;SDS_P2;PMS_P1;PMS_P2;Temp;Humidity;BMP_temperature;BMP_pressure;BME280_temperature;BME280_humidity;BME280_pressure;Samples;Min_cycle;Max_cycle;Signal;HPM_P1;HPM_P2
2024/01/05 00:00:59;;;;;;;0.70;0.70;;;;;;;;;;5055029;23;20294;-93
2024/01/05 00:04:06;;;;;;;0.77;0.77;;;;;;;;;;5276766;23;20241;-94
2024/01/05 00:07:12;;;;;;;0.97;0.97;;;;;;;;;;4988769;28;20686;-93
2024/01/05 00:10:22;;;;;;;1.13;0.93;;;;;;;;;;4977178;28;20374;-92
2024/01/05 00:13:29;;;;;;;0.40;0.40;;;;;;;;;;4986367;28;20199;-94
2024/01/05 00:16:35;;;;;;;1.93;0.67;;;;;;;;;;4988580;28;20189;-92
2024/01/05 00:19:40;;;;;;;0.57;0.57;;;;;;;;;;4990785;28;20189;-91
2024/01/05 00:29:09;;;;;;;0.70;0.70;;;;;;;;;;4974754;28;20222;-93
2024/01/05 00:32:15;;;;;;;0.50;0.50;;;;;;;;;;4986524;28;20178;-91
2024/01/05 00:35:20;;;;;;;0.53;0.53;;;;;;;;;;5011142;23;20250;-92
2024/01/05 00:38:25;;;;;;;0.67;0.67;;;;;;;;;;5007400;23;20239;-93
2024/01/05 00:41:31;;;;;;;2.67;1.00;;;;;;;;;;4956134;29;20195;-92
2024/01/05 00:44:37;;;;;;;0.40;0.40;;;;;;;;;;4957567;28;20208;-93
2024/01/05 00:47:43;;;;;;;0.50;0.50;;;;;;;;;;4955467;28;20281;-92
2024/01/05 00:50:48;;;;;;;1.03;0.70;;;;;;;;;;4954942;28;20366;-91
2024/01/05 00:53:55;;;;;;;0.40;0.40;;;;;;;;;;4955176;28;20187;-91
2024/01/05 00:57:02;;;;;;;0.40;0.40;;;;;;;;;;4956313;28;20219;-92
2024/01/05 01:00:11;;;;;;;0.63;0.63;;;;;;;;;;4956292;28;20187;-91
2024/01/05 01:03:17;;;;;;;1.17;0.73;;;;;;;;;;4954975;28;20190;-94
2024/01/05 01:06:23;;;;;;;0.50;0.50;;;;;;;;;;4955166;28;20231;-93
2024/01/05 01:09:31;;;;;;;0.40;0.40;;;;;;;;;;4956370;28;20191;-92
2024/01/05 01:12:38;;;;;;;0.40;0.40;;;;;;;;;;4955611;28;20539;-92
2024/01/05 01:15:46;;;;;;;0.67;0.67;;;;;;;;;;4954712;28;20190;-94
2024/01/05 01:21:46;;;;;;;0.50;0.50;;;;;;;;;;4970897;23;20243;-92
2024/01/05 01:24:53;;;;;;;0.40;0.40;;;;;;;;;;4956498;28;20233;-94
2024/01/05 01:27:58;;;;;;;0.77;0.77;;;;;;;;;;4955913;28;20222;-93
2024/01/05 01:31:06;;;;;;;0.30;0.30;;;;;;;;;;4956081;28;20236;-94
2024/01/05 01:34:12;;;;;;;0.57;0.57;;;;;;;;;;4957153;28;20191;-91
2024/01/05 01:37:17;;;;;;;0.30;0.30;;;;;;;;;;4955593;28;20179;-91
2024/01/05 01:40:23;;;;;;;0.87;0.87;;;;;;;;;;4968604;28;20202;-91
2024/01/05 01:43:28;;;;;;;0.60;0.60;;;;;;;;;;4956627;28;20195;-92
2024/01/05 01:46:36;;;;;;;0.50;0.50;;;;;;;;;;4955812;28;20218;-92
2024/01/05 01:49:42;;;;;;;0.50;0.50;;;;;;;;;;4954711;28;20187;-92
2024/01/05 01:52:49;;;;;;;0.40;0.40;;;;;;;;;;4954796;28;20184;-90
2024/01/05 01:55:55;;;;;;;0.80;0.80;;;;;;;;;;4954114;28;20186;-92
2024/01/05 01:59:00;;;;;;;0.50;0.50;;;;;;;;;;4954599;28;20336;-93
2024/01/05 02:02:08;;;;;;;0.80;0.60;;;;;;;;;;4953396;28;20253;-93
2024/01/05 02:05:14;;;;;;;0.40;0.40;;;;;;;;;;4953808;28;20179;-91
2024/01/05 02:08:23;;;;;;;0.63;0.63;;;;;;;;;;4970209;28;20190;-92
2024/01/05 02:11:29;;;;;;;0.40;0.40;;;;;;;;;;4973920;28;20206;-92
2024/01/05 02:14:36;;;;;;;0.40;0.40;;;;;;;;;;4972881;28;20183;-92
2024/01/05 02:17:44;;;;;;;0.60;0.60;;;;;;;;;;4973539;28;20223;-92
2024/01/05 02:20:49;;;;;;;1.03;0.93;;;;;;;;;;4973635;28;20194;-93
2024/01/05 02:23:56;;;;;;;1.60;0.97;;;;;;;;;;4972000;28;20190;-91
2024/01/05 02:27:01;;;;;;;0.40;0.40;;;;;;;;;;4973001;28;20226;-94
2024/01/05 02:30:07;;;;;;;0.80;0.80;;;;;;;;;;4970130;28;20338;-93
2024/01/05 02:33:12;;;;;;;0.63;0.63;;;;;;;;;;4971657;28;20178;-95
2024/01/05 02:36:18;;;;;;;0.33;0.33;;;;;;;;;;4971303;28;20190;-93
2024/01/05 02:39:25;;;;;;;0.40;0.40;;;;;;;;;;4970368;28;20199;-91
2024/01/05 02:42:30;;;;;;;0.50;0.50;;;;;;;;;;4953166;28;20248;-93
2024/01/05 02:45:36;;;;;;;0.60;0.60;;;;;;;;;;4956389;28;20267;-92
2024/01/05 02:48:42;;;;;;;2.00;1.13;;;;;;;;;;4953488;28;20207;-92
2024/01/05 02:51:47;;;;;;;0.30;0.30;;;;;;;;;;4951236;28;20226;-90
2024/01/05 02:54:56;;;;;;;0.80;0.80;;;;;;;;;;4950640;28;20636;-94
2024/01/05 02:58:03;;;;;;;0.50;0.50;;;;;;;;;;4952041;28;20200;-94
2024/01/05 03:01:08;;;;;;;0.60;0.60;;;;;;;;;;4952330;28;20224;-91
2024/01/05 03:04:14;;;;;;;0.70;0.63;;;;;;;;;;4952424;28;20271;-94
2024/01/05 03:07:19;;;;;;;0.43;0.43;;;;;;;;;;4951624;28;20215;-91
2024/01/05 03:10:26;;;;;;;0.40;0.40;;;;;;;;;;4951816;28;20238;-91
2024/01/05 03:13:32;;;;;;;0.37;0.37;;;;;;;;;;4950023;28;20191;-92
2024/01/05 03:16:37;;;;;;;0.40;0.40;;;;;;;;;;4951097;28;20319;-92
2024/01/05 03:19:42;;;;;;;0.43;0.43;;;;;;;;;;4949811;28;20187;-93
2024/01/05 03:22:48;;;;;;;0.40;0.40;;;;;;;;;;4950249;28;20178;-92
2024/01/05 03:25:56;;;;;;;0.40;0.40;;;;;;;;;;4951957;28;20577;-93
2024/01/05 03:29:02;;;;;;;0.80;0.80;;;;;;;;;;4949830;28;20344;-93
2024/01/05 03:32:08;;;;;;;0.40;0.40;;;;;;;;;;4951116;28;20179;-90
2024/01/05 03:35:13;;;;;;;0.50;0.50;;;;;;;;;;4950120;28;20240;-92
2024/01/05 03:38:19;;;;;;;0.40;0.40;;;;;;;;;;4951362;28;20252;-92
2024/01/05 03:41:26;;;;;;;1.87;1.03;;;;;;;;;;4952181;28;20187;-92
2024/01/05 03:44:34;;;;;;;1.97;1.27;;;;;;;;;;4952424;28;20195;-94
2024/01/05 03:47:40;;;;;;;0.50;0.50;;;;;;;;;;4963508;28;20222;-93
2024/01/05 03:50:46;;;;;;;0.50;0.50;;;;;;;;;;4951822;28;20199;-94
2024/01/05 03:53:52;;;;;;;1.10;0.83;;;;;;;;;;4951833;28;20175;-92
2024/01/05 03:57:01;;;;;;;0.30;0.30;;;;;;;;;;4953051;28;20195;-92
2024/01/05 04:00:09;;;;;;;0.40;0.40;;;;;;;;;;4953771;28;20290;-93
2024/01/05 04:03:16;;;;;;;0.40;0.40;;;;;;;;;;4952652;28;20196;-90
2024/01/05 04:06:24;;;;;;;0.40;0.40;;;;;;;;;;4952493;28;20182;-93
2024/01/05 04:09:29;;;;;;;0.40;0.40;;;;;;;;;;4952730;28;20187;-94
2024/01/05 04:12:38;;;;;;;0.50;0.50;;;;;;;;;;4982008;23;20221;-92
2024/01/05 04:15:47;;;;;;;0.60;0.60;;;;;;;;;;5008389;23;20249;-94
2024/01/05 04:18:53;;;;;;;0.60;0.60;;;;;;;;;;4983604;28;20197;-90
2024/01/05 04:21:59;;;;;;;0.60;0.60;;;;;;;;;;4983637;28;20210;-93
2024/01/05 04:25:07;;;;;;;1.70;1.00;;;;;;;;;;4971755;28;20187;-94
2024/01/05 04:28:14;;;;;;;0.40;0.40;;;;;;;;;;4971780;28;20253;-93
2024/01/05 04:31:20;;;;;;;0.63;0.63;;;;;;;;;;4972408;28;20202;-93
2024/01/05 04:34:26;;;;;;;0.30;0.30;;;;;;;;;;4970344;28;20199;-92
2024/01/05 04:37:32;;;;;;;0.80;0.80;;;;;;;;;;4971992;28;20226;-92
2024/01/05 04:40:37;;;;;;;0.50;0.50;;;;;;;;;;4969946;28;20182;-93
2024/01/05 04:43:45;;;;;;;2.00;1.00;;;;;;;;;;4970009;28;20191;-91
2024/01/05 04:46:50;;;;;;;0.43;0.43;;;;;;;;;;4970049;28;20546;-94
2024/01/05 04:49:55;;;;;;;1.13;1.00;;;;;;;;;;4968554;28;20231;-92
2024/01/05 04:53:01;;;;;;;0.40;0.40;;;;;;;;;;4973369;28;20194;-94
2024/01/05 04:56:06;;;;;;;4.63;0.80;;;;;;;;;;4974548;28;20266;-92
2024/01/05 04:59:13;;;;;;;0.43;0.43;;;;;;;;;;4973329;28;20194;-92
2024/01/05 05:02:19;;;;;;;0.40;0.40;;;;;;;;;;4972694;29;20203;-92
2024/01/05 05:05:25;;;;;;;0.40;0.40;;;;;;;;;;4970973;29;20559;-92
2024/01/05 05:08:30;;;;;;;1.50;1.13;;;;;;;;;;4971656;29;20214;-92
2024/01/05 05:11:36;;;;;;;0.50;0.50;;;;;;;;;;4972212;29;20242;-92
2024/01/05 05:14:42;;;;;;;0.83;0.83;;;;;;;;;;4971940;28;20261;-92
2024/01/05 05:17:48;;;;;;;0.57;0.57;;;;;;;;;;4972354;28;20202;-92
2024/01/05 05:20:53;;;;;;;0.57;0.57;;;;;;;;;;4973363;28;20198;-93
2024/01/05 05:23:58;;;;;;;5.40;1.10;;;;;;;;;;4973871;28;20199;-93
2024/01/05 05:27:04;;;;;;;0.70;0.70;;;;;;;;;;4984888;28;20214;-93
2024/01/05 05:30:12;;;;;;;0.40;0.40;;;;;;;;;;4974352;28;20203;-89
2024/01/05 05:33:25;;;;;;;0.40;0.40;;;;;;;;;;4972959;28;20195;-92
2024/01/05 05:36:31;;;;;;;0.50;0.50;;;;;;;;;;4973411;28;20206;-93
2024/01/05 05:39:36;;;;;;;1.53;1.03;;;;;;;;;;4973915;28;20762;-93
2024/01/05 05:42:42;;;;;;;0.50;0.50;;;;;;;;;;4953954;28;20191;-93
2024/01/05 05:45:49;;;;;;;0.63;0.63;;;;;;;;;;4953532;28;20212;-91
2024/01/05 05:48:54;;;;;;;0.47;0.47;;;;;;;;;;4965523;28;20222;-94
2024/01/05 05:51:59;;;;;;;0.70;0.70;;;;;;;;;;4963966;28;20312;-92
2024/01/05 05:55:05;;;;;;;0.67;0.50;;;;;;;;;;4952548;28;20179;-93
2024/01/05 05:58:10;;;;;;;0.57;0.57;;;;;;;;;;4953092;28;20170;-92
2024/01/05 06:01:17;;;;;;;0.57;0.57;;;;;;;;;;4953714;28;20194;-91
2024/01/05 06:04:22;;;;;;;9.27;4.73;;;;;;;;;;4965906;28;20194;-93
2024/01/05 06:07:28;;;;;;;9.37;4.73;;;;;;;;;;4952930;28;20282;-92
2024/01/05 06:10:34;;;;;;;6.70;3.70;;;;;;;;;;4952689;28;20191;-92
2024/01/05 06:13:41;;;;;;;10.07;3.60;;;;;;;;;;4953132;28;20195;-92
2024/01/05 06:16:48;;;;;;;9.17;3.87;;;;;;;;;;4964259;28;20649;-92
2024/01/05 06:20:01;;;;;;;8.10;4.30;;;;;;;;;;4954097;28;20191;-91
2024/01/05 06:23:07;;;;;;;9.47;4.07;;;;;;;;;;4951882;28;20196;-91
2024/01/05 06:26:12;;;;;;;12.17;4.23;;;;;;;;;;4952360;28;20194;-93
2024/01/05 06:29:18;;;;;;;12.93;5.53;;;;;;;;;;4953043;28;20214;-94
2024/01/05 06:32:25;;;;;;;12.67;4.40;;;;;;;;;;4952743;28;20338;-95
2024/01/05 06:35:31;;;;;;;7.67;3.50;;;;;;;;;;4951862;28;20183;-91
2024/01/05 06:38:36;;;;;;;13.20;3.67;;;;;;;;;;4953403;28;20175;-93
2024/01/05 06:41:42;;;;;;;5.80;3.80;;;;;;;;;;4977662;28;20206;-92
2024/01/05 06:44:47;;;;;;;6.57;3.87;;;;;;;;;;4982316;28;20235;-91
2024/01/05 06:47:54;;;;;;;23.93;6.60;;;;;;;;;;4980691;28;20237;-89
2024/01/05 06:50:59;;;;;;;11.30;5.87;;;;;;;;;;4969446;28;20654;-91
2024/01/05 06:54:05;;;;;;;14.67;5.93;;;;;;;;;;4969771;28;20197;-91
2024/01/05 06:57:10;;;;;;;11.57;5.70;;;;;;;;;;4982371;28;20197;-90
2024/01/05 07:00:17;;;;;;;10.47;5.30;;;;;;;;;;4980762;28;20328;-92
2024/01/05 07:03:25;;;;;;;13.53;5.37;;;;;;;;;;4982132;28;20183;-92
2024/01/05 07:06:30;;;;;;;10.63;5.47;;;;;;;;;;4983224;28;20191;-90
2024/01/05 07:09:35;;;;;;;11.53;5.10;;;;;;;;;;4981018;28;20213;-92
2024/01/05 07:12:47;;;;;;;10.03;5.47;;;;;;;;;;4983768;28;20209;-91
2024/01/05 07:15:52;;;;;;;9.70;5.40;;;;;;;;;;4981061;28;20214;-91
2024/01/05 07:18:59;;;;;;;9.73;5.77;;;;;;;;;;4982783;28;20202;-92
2024/01/05 07:22:05;;;;;;;9.27;5.23;;;;;;;;;;4984343;28;20185;-93
2024/01/05 07:25:10;;;;;;;10.97;4.67;;;;;;;;;;4999648;28;20197;-94
2024/01/05 07:28:16;;;;;;;13.30;5.07;;;;;;;;;;5000730;28;20214;-93
2024/01/05 07:31:24;;;;;;;12.40;5.40;;;;;;;;;;5001024;28;20194;-92
2024/01/05 07:34:31;;;;;;;10.57;4.70;;;;;;;;;;5000519;28;20267;-93
2024/01/05 07:37:37;;;;;;;11.47;5.10;;;;;;;;;;4999801;28;20204;-92
2024/01/05 07:40:43;;;;;;;11.97;5.10;;;;;;;;;;5001097;28;20294;-95
2024/01/05 07:43:49;;;;;;;11.00;6.27;;;;;;;;;;4989884;28;20313;-92
2024/01/05 07:46:54;;;;;;;8.03;4.80;;;;;;;;;;4985312;28;20238;-93
2024/01/05 07:50:01;;;;;;;8.60;4.87;;;;;;;;;;4981193;28;20202;-93
2024/01/05 07:53:07;;;;;;;11.50;5.60;;;;;;;;;;4982013;28;20233;-90
2024/01/05 07:56:12;;;;;;;9.67;5.33;;;;;;;;;;4960256;28;20889;-92
2024/01/05 07:59:18;;;;;;;27.90;11.07;;;;;;;;;;4963205;28;20179;-92
2024/01/05 08:02:27;;;;;;;12.83;6.50;;;;;;;;;;4953737;29;20220;-91
2024/01/05 08:05:38;;;;;;;10.57;5.90;;;;;;;;;;4962857;28;20187;-90
2024/01/05 08:08:45;;;;;;;11.97;5.43;;;;;;;;;;4950946;28;20583;-91
2024/01/05 08:11:51;;;;;;;10.90;5.03;;;;;;;;;;4982419;28;20201;-91
2024/01/05 08:14:58;;;;;;;9.57;5.00;;;;;;;;;;5000415;28;20233;-92
2024/01/05 08:18:03;;;;;;;17.10;6.93;;;;;;;;;;5001502;28;20246;-93
2024/01/05 08:21:12;;;;;;;10.87;5.47;;;;;;;;;;5001674;28;20218;-91
2024/01/05 08:24:20;;;;;;;13.63;6.30;;;;;;;;;;5001343;28;20198;-92
2024/01/05 08:27:26;;;;;;;12.57;5.70;;;;;;;;;;5004106;28;20190;-91
2024/01/05 08:30:32;;;;;;;13.23;5.60;;;;;;;;;;4988892;28;20206;-92
2024/01/05 08:33:44;;;;;;;11.97;5.27;;;;;;;;;;4975987;28;20194;-91
2024/01/05 08:36:53;;;;;;;17.13;5.43;;;;;;;;;;4975577;28;20208;-90
2024/01/05 08:39:59;;;;;;;9.60;4.97;;;;;;;;;;4991950;28;20283;-91
2024/01/05 08:43:04;;;;;;;9.27;4.73;;;;;;;;;;5005712;28;20551;-91
2024/01/05 08:46:10;;;;;;;11.43;5.67;;;;;;;;;;4994139;28;20230;-94
2024/01/05 08:49:15;;;;;;;9.77;5.20;;;;;;;;;;5005566;28;20213;-92
2024/01/05 08:52:22;;;;;;;9.03;4.50;;;;;;;;;;4966319;28;20288;-93
2024/01/05 08:55:27;;;;;;;8.77;4.97;;;;;;;;;;4964795;28;20199;-93
2024/01/05 08:58:33;;;;;;;15.57;6.73;;;;;;;;;;4965455;28;20216;-91
2024/01/05 09:01:41;;;;;;;14.20;6.87;;;;;;;;;;4967742;28;20211;-91
2024/01/05 23:00:33;;;;;;;27.80;12.30;;;;;;;;;;5751077;23;20235;-93
2024/01/05 23:03:38;;;;;;;23.20;10.33;;;;;;;;;;4952580;28;20191;-94
2024/01/05 23:06:44;;;;;;;22.70;10.07;;;;;;;;;;4964717;28;20198;-93
2024/01/05 23:09:50;;;;;;;24.27;10.20;;;;;;;;;;4965022;28;20291;-91
2024/01/05 23:12:55;;;;;;;22.40;9.87;;;;;;;;;;4953622;28;20292;-93
2024/01/05 23:16:02;;;;;;;23.13;9.77;;;;;;;;;;4953700;28;20188;-92
2024/01/05 23:19:08;;;;;;;24.43;10.43;;;;;;;;;;4954864;28;20320;-92
2024/01/05 23:22:14;;;;;;;24.30;9.63;;;;;;;;;;4947104;28;20184;-91
2024/01/05 23:25:19;;;;;;;21.17;9.67;;;;;;;;;;4944929;28;20232;-91
2024/01/05 23:37:19;;;;;;;21.47;10.50;;;;;;;;;;5998127;23;20194;31
2024/01/05 23:40:27;;;;;;;24.53;10.53;;;;;;;;;;4945200;28;20227;-91
2024/01/05 23:43:32;;;;;;;22.93;9.63;;;;;;;;;;4935353;28;20196;-92
2024/01/05 23:46:43;;;;;;;24.90;10.00;;;;;;;;;;5295418;23;20242;-94
2024/01/05 23:49:49;;;;;;;22.13;9.73;;;;;;;;;;4963271;28;20227;-93
2024/01/05 23:52:54;;;;;;;20.67;9.87;;;;;;;;;;4952133;28;20186;-90
2024/01/05 23:56:02;;;;;;;24.87;10.57;;;;;;;;;;4951670;28;20247;-91
2024/01/05 23:59:07;;;;;;;21.83;10.60;;;;;;;;;;4950594;28;20313;-92
